Time;durP1;ratioP1;P1;durP2;ratioP2;P2;SDS_P1;SDS_P2;PMS_P1;PMS_P2;Temp;Humidity;BMP_temperature;BMP_pressure;BME280_temperature;BME280_humidity;BME280_pressure;Samples;Min_cycle;Max_cycle;Signal;HPM_P1;HPM_P2
2021/12/05 00:24:18;;;;;;;5.78;2.88;;;;;;;;;;5030843;28;20048;-58
2021/12/05 00:26:50;;;;;;;10.80;3.53;;;;;;;;;;5028066;28;20022;-57
2021/12/05 00:31:58;;;;;;;7.85;2.90;;;;;;;;;;5028752;28;20045;-57
2021/12/05 00:34:41;;;;;;;13.27;4.03;;;;;;;;;;5027218;28;20029;-57
2021/12/05 00:40:17;;;;;;;5.00;2.85;;;;;;;;;;5031169;28;20288;-57
2021/12/05 00:57:43;;;;;;;5.18;2.78;;;;;;;;;;5027515;28;20036;-57
2021/12/05 01:08:40;;;;;;;11.65;3.90;;;;;;;;;;5028891;28;20083;-58
2021/12/05 01:14:01;;;;;;;4.80;2.08;;;;;;;;;;5029671;28;20031;-57
2021/12/05 01:16:27;;;;;;;2.80;1.15;;;;;;;;;;5027594;28;20578;-58
2021/12/05 01:18:53;;;;;;;3.70;2.17;;;;;;;;;;5029270;28;20033;-57
2021/12/05 01:21:21;;;;;;;11.57;2.83;;;;;;;;;;5027672;28;20385;-57
2021/12/05 01:26:28;;;;;;;1.92;1.30;;;;;;;;;;5027527;28;20104;-57
2021/12/05 01:39:36;;;;;;;5.72;1.33;;;;;;;;;;5024639;28;20137;-56
2021/12/05 01:50:27;;;;;;;3.35;1.40;;;;;;;;;;5028683;28;20095;-57
2021/12/05 02:32:59;;;;;;;4.65;1.20;;;;;;;;;;5026321;28;20033;-57
2021/12/05 02:43:44;;;;;;;13.55;1.88;;;;;;;;;;5027706;28;20108;-57
2021/12/05 02:46:06;;;;;;;6.40;2.47;;;;;;;;;;5026777;28;20037;-57
2021/12/05 02:48:35;;;;;;;5.28;0.52;;;;;;;;;;5024784;28;20025;-57
2021/12/05 02:51:03;;;;;;;2.92;1.65;;;;;;;;;;5024420;28;20448;-57
2021/12/05 02:53:35;;;;;;;8.57;1.88;;;;;;;;;;5029543;28;20029;-57
2021/12/05 02:56:01;;;;;;;8.63;1.58;;;;;;;;;;5030627;28;20029;-57
2021/12/05 03:01:39;;;;;;;6.93;1.45;;;;;;;;;;5025350;28;20025;-57
2021/12/05 03:04:05;;;;;;;4.20;1.13;;;;;;;;;;5026444;28;20041;-57
2021/12/05 03:06:33;;;;;;;4.05;1.65;;;;;;;;;;5026019;28;20018;-57
2021/12/05 03:09:09;;;;;;;5.28;1.27;;;;;;;;;;5027225;28;20048;-57
2021/12/05 03:11:35;;;;;;;2.10;1.10;;;;;;;;;;5025960;28;20022;-57
2021/12/05 03:14:00;;;;;;;1.98;0.75;;;;;;;;;;5028566;28;20120;-58
2021/12/05 03:16:26;;;;;;;6.10;1.52;;;;;;;;;;5026452;28;20125;-57
2021/12/05 03:18:52;;;;;;;0.90;0.38;;;;;;;;;;5025566;28;20033;-57
2021/12/05 03:21:17;;;;;;;4.53;1.20;;;;;;;;;;5026984;28;20040;-57
2021/12/05 03:23:44;;;;;;;1.98;0.57;;;;;;;;;;5026015;28;20076;-57
2021/12/05 03:26:10;;;;;;;8.40;0.90;;;;;;;;;;5027016;28;20025;-57
2021/12/05 03:28:36;;;;;;;2.83;1.27;;;;;;;;;;5026629;28;20545;-57
2021/12/05 03:31:02;;;;;;;0.73;0.47;;;;;;;;;;5025115;28;20076;-57
2021/12/05 03:33:27;;;;;;;2.88;0.55;;;;;;;;;;5026081;28;20020;-57
2021/12/05 03:35:53;;;;;;;10.00;2.00;;;;;;;;;;5026929;28;20037;-57
2021/12/05 03:38:18;;;;;;;2.42;1.02;;;;;;;;;;5025258;28;20023;-57
2021/12/05 03:40:44;;;;;;;2.53;1.05;;;;;;;;;;5029671;28;20045;-57
2021/12/05 03:43:11;;;;;;;2.42;0.93;;;;;;;;;;5025358;28;20049;-57
2021/12/05 03:45:38;;;;;;;4.78;0.73;;;;;;;;;;5026148;28;20021;-57
2021/12/05 03:48:05;;;;;;;3.40;1.20;;;;;;;;;;5026562;28;20052;-57
2021/12/05 03:50:30;;;;;;;3.28;1.30;;;;;;;;;;5026738;28;20060;-57
2021/12/05 03:52:56;;;;;;;1.77;0.73;;;;;;;;;;5026651;28;20049;-57
2021/12/05 03:55:21;;;;;;;2.25;1.38;;;;;;;;;;5027835;28;20060;-57
2021/12/05 03:57:47;;;;;;;4.95;1.45;;;;;;;;;;5030124;28;20033;-57
2021/12/05 04:00:15;;;;;;;7.03;1.25;;;;;;;;;;5028137;28;20041;-57
2021/12/05 04:02:41;;;;;;;3.90;1.05;;;;;;;;;;5032534;28;20068;-58
2021/12/05 04:05:06;;;;;;;1.20;1.10;;;;;;;;;;5032003;28;20041;-57
2021/12/05 04:07:32;;;;;;;4.90;1.55;;;;;;;;;;5031022;28;20041;-57
2021/12/05 04:09:57;;;;;;;0.70;0.30;;;;;;;;;;5032101;28;20518;-57
2021/12/05 04:12:22;;;;;;;6.05;0.63;;;;;;;;;;5029397;28;20074;-57
2021/12/05 04:14:53;;;;;;;8.07;0.82;;;;;;;;;;5029467;28;20033;-57
2021/12/05 04:17:20;;;;;;;0.70;0.40;;;;;;;;;;5028363;28;20111;-57
2021/12/05 04:19:45;;;;;;;6.00;1.50;;;;;;;;;;5028823;28;20113;-57
2021/12/05 04:22:10;;;;;;;1.20;0.60;;;;;;;;;;5029487;28;20144;-57
2021/12/05 04:24:36;;;;;;;3.85;1.75;;;;;;;;;;5028936;28;20025;-57
2021/12/05 04:27:02;;;;;;;1.27;0.50;;;;;;;;;;5026964;28;20032;-57
2021/12/05 04:29:27;;;;;;;2.17;0.73;;;;;;;;;;5030748;28;20025;-57
2021/12/05 04:31:53;;;;;;;1.80;0.65;;;;;;;;;;5030327;28;20393;-57
2021/12/05 04:34:18;;;;;;;0.85;0.52;;;;;;;;;;5028335;28;20496;-57
2021/12/05 04:36:44;;;;;;;15.23;2.38;;;;;;;;;;5028605;28;20021;-57
2021/12/05 04:39:10;;;;;;;4.07;0.90;;;;;;;;;;5028248;28;20066;-58
2021/12/05 04:41:37;;;;;;;1.00;0.85;;;;;;;;;;5028184;28;20021;-58
2021/12/05 04:44:03;;;;;;;2.85;0.80;;;;;;;;;;5031164;28;20044;-57
2021/12/05 04:46:28;;;;;;;2.70;0.55;;;;;;;;;;5029253;28;20480;-57
2021/12/05 04:48:55;;;;;;;4.93;1.10;;;;;;;;;;5026659;28;20503;-57
2021/12/05 04:51:23;;;;;;;2.28;1.08;;;;;;;;;;5028820;28;20029;-58
2021/12/05 04:53:48;;;;;;;0.35;0.30;;;;;;;;;;5028331;28;20048;-57
2021/12/05 04:56:14;;;;;;;2.10;0.40;;;;;;;;;;5029032;28;20131;-57
2021/12/05 04:58:39;;;;;;;2.72;1.20;;;;;;;;;;5028989;28;20561;-57
2021/12/05 05:01:05;;;;;;;3.13;0.68;;;;;;;;;;5029005;28;20029;-58
2021/12/05 05:03:31;;;;;;;11.77;2.10;;;;;;;;;;5027958;28;20032;-57
2021/12/05 05:06:14;;;;;;;1.85;0.30;;;;;;;;;;5028154;28;20401;-57
2021/12/05 05:08:39;;;;;;;4.40;0.63;;;;;;;;;;5028626;28;20020;-57
2021/12/05 05:11:08;;;;;;;0.70;0.57;;;;;;;;;;5029232;28;20021;-57
2021/12/05 05:13:34;;;;;;;1.73;0.50;;;;;;;;;;5029694;28;20029;-58
2021/12/05 05:15:59;;;;;;;2.15;0.40;;;;;;;;;;5029486;28;20018;-57
2021/12/05 05:18:31;;;;;;;4.45;1.60;;;;;;;;;;5029546;28;20405;-57
2021/12/05 05:45:18;;;;;;;1.35;0.60;;;;;;;;;;5028476;28;20059;-58
2021/12/05 05:52:10;;;;;;;1.42;0.82;;;;;;;;;;5028319;28;20021;-58
2021/12/05 05:54:35;;;;;;;0.43;0.35;;;;;;;;;;5028971;28;20026;-58
2021/12/05 05:57:19;;;;;;;2.28;1.65;;;;;;;;;;5030111;28;20065;-58
2021/12/05 05:59:57;;;;;;;2.63;1.38;;;;;;;;;;5027180;28;20025;-58
2021/12/05 06:05:07;;;;;;;5.05;0.50;;;;;;;;;;5027868;28;20028;-58
2021/12/05 06:07:33;;;;;;;2.33;0.70;;;;;;;;;;5028732;28;20029;-58
2021/12/05 06:09:59;;;;;;;5.88;2.00;;;;;;;;;;5029260;28;20892;-58
2021/12/05 06:12:24;;;;;;;1.95;0.98;;;;;;;;;;5026363;28;20045;-58
2021/12/05 06:14:49;;;;;;;4.85;0.93;;;;;;;;;;5029408;28;20027;-58
2021/12/05 06:17:18;;;;;;;3.30;0.63;;;;;;;;;;5029175;28;20136;-58
2021/12/05 06:19:43;;;;;;;10.45;1.42;;;;;;;;;;5028411;28;20106;-58
2021/12/05 06:22:08;;;;;;;8.20;1.70;;;;;;;;;;5026998;28;20022;-58
2021/12/05 06:24:34;;;;;;;4.45;2.53;;;;;;;;;;5027431;28;20104;-58
2021/12/05 06:27:01;;;;;;;8.82;2.15;;;;;;;;;;5026683;28;20071;-58
2021/12/05 06:29:32;;;;;;;2.60;1.33;;;;;;;;;;5026701;28;20026;-58
2021/12/05 06:32:21;;;;;;;3.33;1.17;;;;;;;;;;5026542;28;20049;-58
2021/12/05 06:37:44;;;;;;;6.70;2.53;;;;;;;;;;5025747;28;20550;-58
2021/12/05 06:47:54;;;;;;;4.40;1.05;;;;;;;;;;5028950;28;20086;-58
2021/12/05 06:50:19;;;;;;;3.15;0.77;;;;;;;;;;5029207;28;20021;-58
2021/12/05 06:52:44;;;;;;;6.18;0.95;;;;;;;;;;5028385;28;20461;-58
2021/12/05 06:55:10;;;;;;;5.25;1.58;;;;;;;;;;5025615;28;20485;-58
2021/12/05 06:57:39;;;;;;;2.38;0.90;;;;;;;;;;5026931;28;20032;-59
2021/12/05 07:00:06;;;;;;;2.28;0.73;;;;;;;;;;5027593;28;20095;-59
2021/12/05 07:02:32;;;;;;;3.00;1.67;;;;;;;;;;5027675;28;20054;-59
2021/12/05 07:07:32;;;;;;;3.85;1.17;;;;;;;;;;5023118;28;20068;-58
2021/12/05 07:09:57;;;;;;;1.33;0.80;;;;;;;;;;5025914;28;20040;-58
2021/12/05 07:15:10;;;;;;;2.72;0.90;;;;;;;;;;5026523;28;20087;-59
2021/12/05 07:23:05;;;;;;;3.38;0.63;;;;;;;;;;5029942;28;20025;-58
2021/12/05 07:25:44;;;;;;;4.40;1.30;;;;;;;;;;5030542;28;20022;-58
2021/12/05 07:41:54;;;;;;;13.02;2.25;;;;;;;;;;5029247;28;20136;-58
2021/12/05 07:44:19;;;;;;;3.92;1.17;;;;;;;;;;5028434;28;20144;-58
2021/12/05 07:46:46;;;;;;;2.78;0.77;;;;;;;;;;5031670;28;20509;-58
2021/12/05 07:49:12;;;;;;;4.05;1.08;;;;;;;;;;5028519;28;20033;-58
2021/12/05 07:51:42;;;;;;;1.20;0.52;;;;;;;;;;5031037;28;20032;-58
2021/12/05 07:54:18;;;;;;;1.88;0.68;;;;;;;;;;5030101;28;20017;-58
2021/12/05 08:15:21;;;;;;;4.43;1.02;;;;;;;;;;5031256;28;20083;-55
2021/12/05 08:17:53;;;;;;;2.63;1.60;;;;;;;;;;5028684;28;20386;-54
2021/12/05 08:20:38;;;;;;;6.35;3.10;;;;;;;;;;5030091;28;20484;-57
2021/12/05 08:23:04;;;;;;;11.18;1.63;;;;;;;;;;5030273;28;20033;-57
2021/12/05 08:25:31;;;;;;;4.13;1.38;;;;;;;;;;5029914;28;20021;-57
2021/12/05 08:28:22;;;;;;;18.58;1.75;;;;;;;;;;5028519;28;20017;-57
2021/12/05 08:30:57;;;;;;;11.55;2.85;;;;;;;;;;5027770;28;20064;-57
2021/12/05 08:39:22;;;;;;;7.55;1.02;;;;;;;;;;5030364;28;20028;-57
2021/12/05 09:24:35;;;;;;;5.05;0.82;;;;;;;;;;5029662;28;20056;-56
2021/12/05 09:27:25;;;;;;;1.85;0.98;;;;;;;;;;5028845;28;20557;-57
2021/12/05 10:03:01;;;;;;;2.35;0.77;;;;;;;;;;5027772;28;20045;-57
2021/12/05 10:08:43;;;;;;;1.38;0.30;;;;;;;;;;5025863;28;20033;-57
2021/12/05 10:19:11;;;;;;;1.95;0.88;;;;;;;;;;5031779;28;20033;-58
2021/12/05 10:27:26;;;;;;;1.48;0.40;;;;;;;;;;5026763;28;20032;-57
2021/12/05 10:38:11;;;;;;;12.43;2.00;;;;;;;;;;5026659;28;20032;-57
2021/12/05 10:41:35;;;;;;;5.45;1.42;;;;;;;;;;5026194;28;20028;-57
2021/12/05 10:43:55;;;;;;;6.90;1.52;;;;;;;;;;5027359;28;20075;-58
2021/12/05 10:46:21;;;;;;;0.45;0.20;;;;;;;;;;5025348;28;20017;-57
2021/12/05 10:49:06;;;;;;;4.28;1.92;;;;;;;;;;5025785;28;20175;-57
2021/12/05 10:51:33;;;;;;;3.20;1.70;;;;;;;;;;5026050;28;20143;-56
2021/12/05 10:54:08;;;;;;;2.55;0.77;;;;;;;;;;5026126;28;20037;-58
2021/12/05 10:56:35;;;;;;;11.70;1.80;;;;;;;;;;5028089;28;20377;-58
2021/12/05 10:59:06;;;;;;;3.50;1.75;;;;;;;;;;5029269;28;20104;-58
2021/12/05 11:01:41;;;;;;;0.93;0.50;;;;;;;;;;5026023;28;20053;-58
2021/12/05 11:04:06;;;;;;;4.07;1.40;;;;;;;;;;5029491;28;20029;-59
2021/12/05 11:06:33;;;;;;;6.60;1.33;;;;;;;;;;5029382;28;20476;-57
2021/12/05 11:09:01;;;;;;;9.52;1.70;;;;;;;;;;5029833;28;20112;-58
2021/12/05 11:11:27;;;;;;;1.20;0.60;;;;;;;;;;5033413;28;20045;-58
2021/12/05 11:13:52;;;;;;;11.38;3.17;;;;;;;;;;5032461;28;20126;-57
2021/12/05 11:16:32;;;;;;;1.25;0.73;;;;;;;;;;5030033;28;20603;-58
2021/12/05 11:18:57;;;;;;;4.35;1.38;;;;;;;;;;5030500;28;20964;-58
2021/12/05 11:21:23;;;;;;;10.85;1.15;;;;;;;;;;5030999;28;20037;-58
2021/12/05 11:24:04;;;;;;;1.98;0.93;;;;;;;;;;5027062;28;20273;-58
2021/12/05 11:26:30;;;;;;;12.85;1.38;;;;;;;;;;5024120;28;20898;-58
2021/12/05 11:28:56;;;;;;;5.70;1.02;;;;;;;;;;5023903;28;20021;-58
2021/12/05 11:31:25;;;;;;;8.10;2.47;;;;;;;;;;5026325;28;20033;-57
2021/12/05 11:33:53;;;;;;;2.03;0.70;;;;;;;;;;5024989;28;20017;-57
2021/12/05 11:36:22;;;;;;;5.22;1.60;;;;;;;;;;5024030;28;20037;-58
2021/12/05 11:38:47;;;;;;;0.75;0.65;;;;;;;;;;5029348;28;20056;-57
2021/12/05 11:41:15;;;;;;;11.80;2.72;;;;;;;;;;5026524;28;20095;-58
2021/12/05 11:43:42;;;;;;;2.13;1.08;;;;;;;;;;5028357;28;20026;-58
2021/12/05 11:46:11;;;;;;;5.40;1.33;;;;;;;;;;5026205;28;20488;-57
2021/12/05 11:48:45;;;;;;;5.72;2.05;;;;;;;;;;5028265;28;20142;-58
2021/12/05 11:51:19;;;;;;;3.53;1.90;;;;;;;;;;5029665;28;20023;-58
2021/12/05 11:53:50;;;;;;;13.02;2.05;;;;;;;;;;5027315;28;20025;-58
2021/12/05 11:56:20;;;;;;;6.82;3.20;;;;;;;;;;5026344;28;20388;-58
2021/12/05 11:59:00;;;;;;;8.60;2.75;;;;;;;;;;5026668;28;20029;-58
2021/12/05 12:01:32;;;;;;;7.53;1.25;;;;;;;;;;5030261;28;20018;-58
2021/12/05 12:03:57;;;;;;;9.32;3.72;;;;;;;;;;5027397;28;20022;-57
2021/12/05 12:06:23;;;;;;;3.38;1.80;;;;;;;;;;5028388;28;20508;-57
2021/12/05 12:08:50;;;;;;;6.88;2.58;;;;;;;;;;5026447;28;20017;-51
2021/12/05 12:11:15;;;;;;;5.00;2.17;;;;;;;;;;5023598;28;20131;-55
2021/12/05 12:13:41;;;;;;;2.15;0.77;;;;;;;;;;5025710;28;20057;-53
2021/12/05 12:16:08;;;;;;;9.32;2.17;;;;;;;;;;5020720;28;20104;-55
2021/12/05 12:18:35;;;;;;;6.32;1.48;;;;;;;;;;5026710;28;20070;-54
2021/12/05 12:21:06;;;;;;;7.75;1.48;;;;;;;;;;5029915;28;20042;-54
2021/12/05 12:23:31;;;;;;;4.82;0.88;;;;;;;;;;5023767;28;20845;-53
2021/12/05 12:25:58;;;;;;;5.82;2.30;;;;;;;;;;5028583;28;20024;-55
2021/12/05 12:28:24;;;;;;;5.85;2.53;;;;;;;;;;5027519;28;20021;-56
2021/12/05 12:31:00;;;;;;;16.52;2.10;;;;;;;;;;5026517;28;20044;-55
2021/12/05 12:33:34;;;;;;;12.40;1.20;;;;;;;;;;5025887;28;20112;-57
2021/12/05 12:36:00;;;;;;;4.30;0.82;;;;;;;;;;5025292;28;20029;-56
2021/12/05 12:38:28;;;;;;;16.30;5.13;;;;;;;;;;5026986;28;20037;-58
2021/12/05 12:41:01;;;;;;;14.05;7.93;;;;;;;;;;5025424;28;20128;-56
2021/12/05 12:43:27;;;;;;;21.23;18.88;;;;;;;;;;5027326;28;20025;-53
2021/12/05 12:45:52;;;;;;;11.02;2.97;;;;;;;;;;5025207;28;20021;-50
2021/12/05 12:48:18;;;;;;;6.78;3.55;;;;;;;;;;5025328;28;20021;-58
2021/12/05 12:50:53;;;;;;;5.70;1.90;;;;;;;;;;5025571;28;20053;-55
2021/12/05 12:53:21;;;;;;;6.85;2.10;;;;;;;;;;5024596;28;20025;-53
2021/12/05 12:55:52;;;;;;;6.10;2.65;;;;;;;;;;5025528;28;20021;-54
2021/12/05 12:58:36;;;;;;;8.48;2.10;;;;;;;;;;5028516;28;20538;-52
2021/12/05 13:01:16;;;;;;;7.78;2.78;;;;;;;;;;5026518;28;20032;-62
2021/12/05 13:04:17;;;;;;;16.67;4.82;;;;;;;;;;5026894;28;20032;-62
2021/12/05 13:12:30;;;;;;;20.55;4.25;;;;;;;;;;5026448;28;20060;-57
2021/12/05 13:15:04;;;;;;;8.23;3.45;;;;;;;;;;5025659;28;20040;-53
2021/12/05 13:17:36;;;;;;;6.50;3.42;;;;;;;;;;5025540;28;20084;-57
2021/12/05 13:20:03;;;;;;;17.20;7.40;;;;;;;;;;5029553;28;20029;-57
2021/12/05 13:22:28;;;;;;;11.27;5.22;;;;;;;;;;5028954;28;20048;-58
2021/12/05 13:25:03;;;;;;;16.27;5.20;;;;;;;;;;5024232;28;20033;-59
2021/12/05 13:27:32;;;;;;;12.60;4.28;;;;;;;;;;5022369;28;20022;-58
2021/12/05 13:29:59;;;;;;;9.60;3.03;;;;;;;;;;5025374;28;20052;-54
2021/12/05 13:32:27;;;;;;;10.15;4.18;;;;;;;;;;5026342;28;20044;-56
2021/12/05 13:34:54;;;;;;;11.63;3.53;;;;;;;;;;5025115;28;20021;-50
2021/12/05 13:37:20;;;;;;;4.10;2.55;;;;;;;;;;5024186;28;20180;-57
2021/12/05 13:39:47;;;;;;;9.60;2.53;;;;;;;;;;5027985;28;20022;-58
2021/12/05 13:42:12;;;;;;;14.68;4.30;;;;;;;;;;5025853;28;20055;-57
2021/12/05 13:44:56;;;;;;;17.25;2.13;;;;;;;;;;5024330;28;20524;-58
2021/12/05 13:47:27;;;;;;;6.40;2.47;;;;;;;;;;5024769;28;20021;-55
2021/12/05 13:49:53;;;;;;;19.95;7.85;;;;;;;;;;5025176;28;20026;-55
2021/12/05 13:52:29;;;;;;;7.15;3.17;;;;;;;;;;5023285;28;20528;-56
2021/12/05 13:55:15;;;;;;;15.20;4.80;;;;;;;;;;5026366;28;20029;-51
2021/12/05 13:58:00;;;;;;;5.43;2.58;;;;;;;;;;5024691;28;20163;-56
2021/12/05 14:00:42;;;;;;;15.82;3.55;;;;;;;;;;5024589;28;20127;-47
2021/12/05 14:03:07;;;;;;;8.85;4.05;;;;;;;;;;5025329;28;20096;-50
2021/12/05 14:05:36;;;;;;;6.50;3.20;;;;;;;;;;5026717;28;20404;-58
2021/12/05 14:08:02;;;;;;;14.98;3.10;;;;;;;;;;5027356;28;20022;-56
2021/12/05 14:10:40;;;;;;;12.85;4.15;;;;;;;;;;5023451;28;20026;-59
2021/12/05 14:13:06;;;;;;;4.38;2.83;;;;;;;;;;5024920;28;20120;-51
2021/12/05 14:15:31;;;;;;;6.75;3.45;;;;;;;;;;5027373;28;20108;-45
2021/12/05 14:17:57;;;;;;;13.25;4.35;;;;;;;;;;5023626;28;20053;-42
2021/12/05 14:20:25;;;;;;;5.47;3.08;;;;;;;;;;5023589;28;20068;-48
2021/12/05 14:22:51;;;;;;;8.05;2.97;;;;;;;;;;5024244;28;20029;-49
2021/12/05 14:25:18;;;;;;;4.22;1.90;;;;;;;;;;5025504;28;20024;-60
2021/12/05 14:27:49;;;;;;;6.32;1.85;;;;;;;;;;5024126;28;20028;-59
2021/12/05 14:30:19;;;;;;;15.55;2.45;;;;;;;;;;5024531;28;20033;-52
2021/12/05 14:32:45;;;;;;;12.65;3.88;;;;;;;;;;5021985;28;20033;-57
2021/12/05 14:35:12;;;;;;;15.77;3.45;;;;;;;;;;5023978;28;20032;-48
2021/12/05 14:37:39;;;;;;;8.45;2.47;;;;;;;;;;5023014;28;20515;-49
2021/12/05 14:40:06;;;;;;;17.00;4.25;;;;;;;;;;5024209;28;20033;-48
2021/12/05 14:42:33;;;;;;;17.13;4.00;;;;;;;;;;5026255;28;20028;-47
2021/12/05 14:45:00;;;;;;;30.30;4.35;;;;;;;;;;5022348;28;20484;-49
2021/12/05 14:47:27;;;;;;;8.50;1.75;;;;;;;;;;5022776;28;20032;-48
2021/12/05 14:49:55;;;;;;;18.05;4.22;;;;;;;;;;5025646;28;20031;-47
2021/12/05 14:52:25;;;;;;;11.30;4.25;;;;;;;;;;5022939;28;20657;-45
2021/12/05 14:54:50;;;;;;;9.82;3.85;;;;;;;;;;5028358;28;20251;-44
2021/12/05 14:57:17;;;;;;;9.82;4.07;;;;;;;;;;5023980;28;20555;-53
2021/12/05 14:59:45;;;;;;;12.90;3.60;;;;;;;;;;5024234;28;20048;-48
2021/12/05 15:02:11;;;;;;;6.97;4.68;;;;;;;;;;5025596;28;20041;-54
2021/12/05 15:04:39;;;;;;;7.03;2.45;;;;;;;;;;5027094;28;20071;-54
2021/12/05 15:07:05;;;;;;;10.55;3.78;;;;;;;;;;5027312;28;20025;-50
2021/12/05 15:09:33;;;;;;;13.75;4.45;;;;;;;;;;5023284;28;20029;-51
2021/12/05 15:12:07;;;;;;;8.30;2.13;;;;;;;;;;5022756;28;20489;-54
2021/12/05 15:14:33;;;;;;;22.58;4.57;;;;;;;;;;5024548;28;20098;-59
2021/12/05 15:17:01;;;;;;;10.13;3.63;;;;;;;;;;5022631;28;20532;-56
2021/12/05 15:19:26;;;;;;;5.13;2.20;;;;;;;;;;5024675;28;20025;-59
2021/12/05 15:21:51;;;;;;;11.63;2.85;;;;;;;;;;5021184;28;20025;-58
2021/12/05 15:24:18;;;;;;;11.63;4.65;;;;;;;;;;5023479;28;20083;-52
2021/12/05 15:26:43;;;;;;;4.68;2.67;;;;;;;;;;5025295;28;20594;-56
2021/12/05 15:29:08;;;;;;;12.48;6.22;;;;;;;;;;5021806;28;20025;-57
2021/12/05 15:31:36;;;;;;;8.65;3.05;;;;;;;;;;5025531;28;20040;-50
2021/12/05 15:34:18;;;;;;;5.47;2.78;;;;;;;;;;5023320;28;20022;-51
2021/12/05 15:36:43;;;;;;;8.20;6.88;;;;;;;;;;5023765;28;20021;-49
2021/12/05 15:39:19;;;;;;;13.48;3.42;;;;;;;;;;5022470;28;20079;-51
2021/12/05 15:41:44;;;;;;;10.55;3.58;;;;;;;;;;5024196;28;20029;-57
2021/12/05 15:44:09;;;;;;;13.88;5.63;;;;;;;;;;5025190;28;20029;-56
2021/12/05 15:46:35;;;;;;;9.25;3.72;;;;;;;;;;5025494;28;20049;-46
2021/12/05 15:49:04;;;;;;;4.22;1.83;;;;;;;;;;5025534;28;20504;-53
2021/12/05 15:51:30;;;;;;;6.78;1.25;;;;;;;;;;5026753;28;20010;-52
2021/12/05 15:53:57;;;;;;;10.13;2.30;;;;;;;;;;5026964;28;20076;-51
2021/12/05 15:56:24;;;;;;;9.07;1.35;;;;;;;;;;5026130;28;20029;-51
2021/12/05 15:58:58;;;;;;;9.05;3.03;;;;;;;;;;5027335;28;20021;-53
2021/12/05 16:01:24;;;;;;;18.45;3.38;;;;;;;;;;5027576;28;20060;-44
2021/12/05 16:19:15;;;;;;;10.52;4.32;;;;;;;;;;5146792;27;20451;-43
2021/12/05 16:21:40;;;;;;;9.23;4.80;;;;;;;;;;5128183;27;20120;-48
2021/12/05 16:24:09;;;;;;;5.57;2.47;;;;;;;;;;5129744;27;20027;-48
2021/12/05 16:26:35;;;;;;;2.28;1.25;;;;;;;;;;5128081;27;20023;-44
2021/12/05 16:29:02;;;;;;;13.82;3.13;;;;;;;;;;5129466;27;20031;-43
2021/12/05 16:31:30;;;;;;;13.00;4.80;;;;;;;;;;5129117;27;20019;-41
2021/12/05 16:33:58;;;;;;;8.23;4.28;;;;;;;;;;5129110;27;20838;-45
2021/12/05 16:36:35;;;;;;;11.30;3.90;;;;;;;;;;5126014;27;20434;-45
2021/12/05 16:39:10;;;;;;;12.23;4.75;;;;;;;;;;5132429;27;20011;-43
2021/12/05 16:41:37;;;;;;;20.23;5.28;;;;;;;;;;5131163;27;20027;-36
2021/12/05 16:44:05;;;;;;;13.00;5.90;;;;;;;;;;5134573;27;20011;-37
2021/12/05 16:46:33;;;;;;;3.65;2.20;;;;;;;;;;5130639;27;20007;-36
2021/12/05 16:48:59;;;;;;;6.38;4.00;;;;;;;;;;5132823;27;20053;-36
2021/12/05 16:51:27;;;;;;;6.95;3.30;;;;;;;;;;5126803;27;20020;-38
2021/12/05 16:53:58;;;;;;;9.85;4.57;;;;;;;;;;5127039;27;20020;-37
2021/12/05 16:56:39;;;;;;;13.73;6.22;;;;;;;;;;5127851;27;20027;-38
2021/12/05 16:59:10;;;;;;;10.35;4.97;;;;;;;;;;5132583;27;20125;-37
2021/12/05 17:01:35;;;;;;;12.82;4.97;;;;;;;;;;5132745;27;20490;-36
2021/12/05 17:04:01;;;;;;;5.45;2.38;;;;;;;;;;5127105;27;20030;-37
2021/12/05 17:06:26;;;;;;;16.27;4.45;;;;;;;;;;5133491;27;20017;-37
2021/12/05 17:08:53;;;;;;;6.40;3.40;;;;;;;;;;5133147;27;20031;-39
2021/12/05 17:11:21;;;;;;;6.97;2.67;;;;;;;;;;5130570;27;20023;-37
2021/12/05 17:13:48;;;;;;;13.32;4.82;;;;;;;;;;5130244;27;20100;-38
2021/12/05 17:16:18;;;;;;;8.30;2.97;;;;;;;;;;5135249;27;20162;-37
2021/12/05 17:18:46;;;;;;;8.75;3.75;;;;;;;;;;5121428;27;20055;-38
2021/12/05 17:21:11;;;;;;;16.20;4.88;;;;;;;;;;5113609;27;20027;-38
2021/12/05 17:23:55;;;;;;;17.58;5.97;;;;;;;;;;5107456;27;20024;-37
2021/12/05 17:26:26;;;;;;;8.05;2.55;;;;;;;;;;5109095;27;20058;-37
2021/12/05 17:28:55;;;;;;;14.07;5.85;;;;;;;;;;5113185;27;20027;-37
2021/12/05 17:31:25;;;;;;;27.23;13.73;;;;;;;;;;5107229;27;20035;-40
2021/12/05 17:33:53;;;;;;;24.63;8.35;;;;;;;;;;5111884;27;20012;-39
2021/12/05 17:36:26;;;;;;;10.15;3.30;;;;;;;;;;5118128;27;20208;-38
2021/12/05 17:38:53;;;;;;;10.40;2.70;;;;;;;;;;5116369;27;20023;-38
2021/12/05 17:41:19;;;;;;;26.02;10.27;;;;;;;;;;5112638;27;20501;-38
2021/12/05 17:43:45;;;;;;;14.38;4.75;;;;;;;;;;5115222;27;20032;-41
2021/12/05 17:46:11;;;;;;;4.95;2.20;;;;;;;;;;5119401;27;20473;-38
2021/12/05 17:48:36;;;;;;;10.18;3.65;;;;;;;;;;5109812;27;20023;-38
2021/12/05 17:51:03;;;;;;;12.25;6.03;;;;;;;;;;5113622;27;20027;-38
2021/12/05 17:53:31;;;;;;;24.20;15.20;;;;;;;;;;5106698;27;20102;-38
2021/12/05 17:56:07;;;;;;;14.27;6.30;;;;;;;;;;5109716;27;20023;-38
2021/12/05 17:58:53;;;;;;;18.00;5.10;;;;;;;;;;5109448;27;20334;-38
2021/12/05 18:04:05;;;;;;;9.27;3.08;;;;;;;;;;5111521;27;20250;-38
2021/12/05 18:06:31;;;;;;;12.77;5.18;;;;;;;;;;5114174;27;20439;-38
2021/12/05 18:08:57;;;;;;;21.48;6.38;;;;;;;;;;5117419;27;20015;-39
2021/12/05 18:11:24;;;;;;;10.30;5.10;;;;;;;;;;5112841;27;20434;-39
2021/12/05 18:13:53;;;;;;;14.70;4.57;;;;;;;;;;5096078;27;20015;-39
2021/12/05 18:16:23;;;;;;;9.95;3.15;;;;;;;;;;5111767;27;20039;-38
2021/12/05 18:19:00;;;;;;;17.75;2.95;;;;;;;;;;5111953;27;20073;-37
2021/12/05 18:21:26;;;;;;;13.55;3.20;;;;;;;;;;5088830;27;20042;-38
2021/12/05 18:23:52;;;;;;;8.80;3.15;;;;;;;;;;5113036;27;20059;-37
2021/12/05 18:26:17;;;;;;;8.55;3.33;;;;;;;;;;5109694;27;20024;-36
2021/12/05 18:28:46;;;;;;;9.18;3.33;;;;;;;;;;5113765;27;20537;-36
2021/12/05 18:31:16;;;;;;;16.23;4.97;;;;;;;;;;5106009;27;20019;-37
2021/12/05 18:33:43;;;;;;;4.82;3.05;;;;;;;;;;5110623;27;20020;-36
2021/12/05 18:36:09;;;;;;;16.13;6.07;;;;;;;;;;5112690;27;20112;-38
2021/12/05 18:38:34;;;;;;;8.85;3.25;;;;;;;;;;5109267;27;20081;-39
2021/12/05 18:41:06;;;;;;;17.98;6.80;;;;;;;;;;5111294;27;20027;-38
2021/12/05 18:43:37;;;;;;;12.55;5.43;;;;;;;;;;5108147;27;20031;-39
2021/12/05 18:46:04;;;;;;;20.13;7.18;;;;;;;;;;5094886;27;20031;-38
2021/12/05 18:48:30;;;;;;;21.20;12.90;;;;;;;;;;5087221;28;20054;-38
2021/12/05 18:51:02;;;;;;;23.33;19.67;;;;;;;;;;5110333;27;20098;-39
2021/12/05 18:53:31;;;;;;;20.48;9.90;;;;;;;;;;5092771;27;20033;-38
2021/12/05 18:55:56;;;;;;;15.82;11.65;;;;;;;;;;5092224;27;20031;-36
2021/12/05 18:58:24;;;;;;;17.48;5.63;;;;;;;;;;5087896;27;20345;-38
2021/12/05 19:06:25;;;;;;;29.20;19.73;;;;;;;;;;5111039;27;20115;-38
2021/12/05 19:09:15;;;;;;;22.83;10.88;;;;;;;;;;5112457;27;20049;-43
2021/12/05 19:11:45;;;;;;;12.65;10.23;;;;;;;;;;5109520;27;20020;-38
2021/12/05 19:14:18;;;;;;;17.95;6.53;;;;;;;;;;5112918;27;20023;-38
2021/12/05 19:16:45;;;;;;;22.13;4.80;;;;;;;;;;5112778;27;20031;-37
2021/12/05 19:19:10;;;;;;;16.65;7.50;;;;;;;;;;5115676;27;20367;-38
2021/12/05 19:21:36;;;;;;;12.57;5.80;;;;;;;;;;5112326;27;20462;-39
2021/12/05 19:24:02;;;;;;;15.77;10.77;;;;;;;;;;5116438;27;20568;-38
2021/12/05 19:26:27;;;;;;;25.33;11.10;;;;;;;;;;5117842;27;20027;-38
2021/12/05 19:28:53;;;;;;;14.98;8.75;;;;;;;;;;5110212;27;20027;-39
2021/12/05 19:31:18;;;;;;;29.02;6.35;;;;;;;;;;5112211;27;20077;-38
2021/12/05 19:33:43;;;;;;;14.70;4.97;;;;;;;;;;5110351;27;20027;-38
2021/12/05 19:36:14;;;;;;;19.60;9.25;;;;;;;;;;5111020;27;20028;-37
2021/12/05 19:38:39;;;;;;;8.98;6.13;;;;;;;;;;5112421;27;20027;-38
2021/12/05 19:41:05;;;;;;;9.10;6.55;;;;;;;;;;5113811;27;20116;-38
2021/12/05 19:43:33;;;;;;;11.02;6.47;;;;;;;;;;5111543;27;20023;-39
2021/12/05 19:45:59;;;;;;;10.52;5.47;;;;;;;;;;5109510;27;20031;-39
2021/12/05 19:48:24;;;;;;;24.98;5.10;;;;;;;;;;5110526;27;20023;-37
2021/12/05 19:50:53;;;;;;;9.80;6.43;;;;;;;;;;5112741;27;20091;-37
2021/12/05 19:53:18;;;;;;;11.45;8.30;;;;;;;;;;5105341;27;20092;-36
2021/12/05 19:55:43;;;;;;;25.40;6.18;;;;;;;;;;5089646;27;20738;-37
2021/12/05 19:58:09;;;;;;;16.67;7.43;;;;;;;;;;5111443;27;20030;-37
2021/12/05 20:00:36;;;;;;;12.32;5.88;;;;;;;;;;5103674;27;20114;-36
2021/12/05 20:03:01;;;;;;;13.77;4.57;;;;;;;;;;5107729;28;20111;-37
2021/12/05 20:05:27;;;;;;;6.25;3.70;;;;;;;;;;5111690;28;20152;-35
2021/12/05 20:07:53;;;;;;;9.05;3.67;;;;;;;;;;5109412;28;20019;-37
2021/12/05 20:10:21;;;;;;;11.85;3.67;;;;;;;;;;5116186;28;20038;-39
2021/12/05 20:12:47;;;;;;;7.18;3.22;;;;;;;;;;5111080;28;20125;-39
2021/12/05 20:15:12;;;;;;;29.38;5.97;;;;;;;;;;5111899;28;20374;-40
2021/12/05 20:17:37;;;;;;;24.13;6.13;;;;;;;;;;5114392;27;20415;-41
2021/12/05 20:20:05;;;;;;;8.13;4.65;;;;;;;;;;5113355;28;20445;-38
2021/12/05 20:22:32;;;;;;;12.48;7.25;;;;;;;;;;5113307;28;20042;-43
2021/12/05 20:24:58;;;;;;;4.65;3.10;;;;;;;;;;5113839;28;20027;-35
2021/12/05 20:27:23;;;;;;;4.88;3.33;;;;;;;;;;5113251;28;20506;-36
2021/12/05 20:29:49;;;;;;;11.63;5.15;;;;;;;;;;5112753;28;20019;-36
2021/12/05 20:32:14;;;;;;;8.85;5.75;;;;;;;;;;5110387;28;20026;-35
2021/12/05 20:34:39;;;;;;;15.57;2.80;;;;;;;;;;5114494;28;20019;-37
2021/12/05 20:37:05;;;;;;;16.70;3.42;;;;;;;;;;5111544;28;20294;-38